createdAt,value
2022-12-18T00:03:09.657Z,-8.25
2022-12-18T00:06:12.664Z,-8.40
2022-12-18T00:09:16.043Z,-8.29
2022-12-18T00:15:20.643Z,-8.83
2022-12-18T00:18:22.329Z,-8.74
2022-12-18T00:21:24.154Z,-8.36
2022-12-18T00:24:27.380Z,-8.43
2022-12-18T00:27:29.019Z,-8.45
2022-12-18T00:30:31.121Z,-8.55
2022-12-18T00:33:34.086Z,-8.57
2022-12-18T00:36:35.839Z,-8.91
2022-12-18T00:39:38.819Z,-8.92
2022-12-18T00:42:58.974Z,-8.87
2022-12-18T00:46:00.799Z,-8.58
2022-12-18T00:49:03.018Z,-8.67
2022-12-18T00:52:04.836Z,-8.92
2022-12-18T00:55:08.920Z,-8.90
2022-12-18T00:58:12.144Z,-8.68
2022-12-18T01:01:14.008Z,-8.66
2022-12-18T01:04:16.292Z,-8.55
2022-12-18T01:07:20.612Z,-8.81
2022-12-18T01:10:24.454Z,-8.66
2022-12-18T01:13:26.232Z,-9.02
2022-12-18T01:16:28.334Z,-9.16
2022-12-18T01:19:30.034Z,-8.86
2022-12-18T01:22:34.543Z,-8.79
2022-12-18T01:25:39.553Z,-8.80
2022-12-18T01:28:44.788Z,-8.76
2022-12-18T01:31:46.526Z,-8.92
2022-12-18T01:34:48.337Z,-9.06
2022-12-18T01:37:50.065Z,-9.05
2022-12-18T01:40:59.316Z,-8.91
2022-12-18T01:44:01.000Z,-8.79
2022-12-18T01:47:02.668Z,-8.72
2022-12-18T01:50:09.657Z,-9.08
2022-12-18T01:53:15.000Z,-9.17
2022-12-18T01:56:20.725Z,-9.21
2022-12-18T01:59:22.707Z,-9.24
2022-12-18T02:02:24.685Z,-9.29
2022-12-18T02:05:41.019Z,-9.06
2022-12-18T02:08:52.671Z,-9.13
2022-12-18T02:12:05.833Z,-8.95
2022-12-18T02:15:13.744Z,-8.90
2022-12-18T02:18:20.622Z,-9.03
2022-12-18T02:21:32.209Z,-8.95
2022-12-18T02:24:41.080Z,-9.03
2022-12-18T02:27:48.530Z,-8.91
2022-12-18T02:30:53.416Z,-8.97
2022-12-18T02:33:59.633Z,-9.05
2022-12-18T02:37:08.797Z,-9.07
2022-12-18T02:40:12.615Z,-9.14
2022-12-18T02:43:17.043Z,-9.38
2022-12-18T02:46:28.428Z,-9.62
2022-12-18T02:49:37.981Z,-9.80
2022-12-18T02:52:47.000Z,-9.60
2022-12-18T02:56:03.604Z,-9.54
2022-12-18T02:59:13.638Z,-9.85
2022-12-18T03:02:30.162Z,-9.83
2022-12-18T03:05:37.546Z,-9.89
2022-12-18T03:08:43.547Z,-9.93
2022-12-18T03:12:07.962Z,-9.98
2022-12-18T03:15:18.244Z,-9.96
2022-12-18T03:18:27.423Z,-9.74
2022-12-18T03:21:35.246Z,-9.57
2022-12-18T03:24:40.442Z,-9.53
2022-12-18T03:27:47.202Z,-9.40
2022-12-18T03:30:59.979Z,-9.29
2022-12-18T03:34:05.127Z,-9.38
2022-12-18T03:37:16.481Z,-9.46
2022-12-18T03:40:21.191Z,-9.27
2022-12-18T03:43:36.661Z,-9.40
2022-12-18T03:46:48.298Z,-9.59
2022-12-18T03:49:58.772Z,-9.76
2022-12-18T03:53:07.492Z,-9.80
2022-12-18T03:56:10.986Z,-9.72
2022-12-18T03:59:17.379Z,-9.84
2022-12-18T04:02:23.468Z,-9.67
2022-12-18T04:05:27.762Z,-9.73
2022-12-18T04:08:30.347Z,-9.70
2022-12-18T04:11:37.754Z,-9.71
2022-12-18T04:14:41.016Z,-9.71
2022-12-18T04:17:49.001Z,-9.89
2022-12-18T04:20:52.814Z,-9.86
2022-12-18T04:23:54.576Z,-9.75
2022-12-18T04:26:58.172Z,-9.70
2022-12-18T04:30:03.429Z,-9.78
2022-12-18T04:33:10.700Z,-9.78
2022-12-18T04:36:13.446Z,-9.69
2022-12-18T04:39:15.836Z,-9.64
2022-12-18T04:42:17.735Z,-9.60
2022-12-18T04:45:19.581Z,-9.65
2022-12-18T04:48:22.733Z,-9.64
2022-12-18T04:51:26.599Z,-9.58
2022-12-18T04:54:28.524Z,-9.52
2022-12-18T04:57:31.031Z,-9.38
2022-12-18T05:00:32.683Z,-9.47
2022-12-18T05:03:36.882Z,-9.45
2022-12-18T05:06:38.728Z,-9.43
2022-12-18T05:09:40.322Z,-9.48
2022-12-18T05:12:59.004Z,-9.48
2022-12-18T05:16:03.141Z,-9.45
2022-12-18T05:19:06.244Z,-9.45
2022-12-18T05:22:08.051Z,-9.53
2022-12-18T05:25:09.800Z,-9.64
2022-12-18T05:28:11.470Z,-9.70
2022-12-18T05:31:14.243Z,-9.61
2022-12-18T05:34:17.272Z,-9.30
2022-12-18T05:37:19.043Z,-9.14
2022-12-18T05:40:20.701Z,-9.04
2022-12-18T05:43:23.579Z,-9.14
2022-12-18T05:46:25.538Z,-9.30
2022-12-18T05:49:28.708Z,-9.71
2022-12-18T05:52:31.482Z,-9.47
2022-12-18T05:55:34.205Z,-9.69
2022-12-18T05:58:36.056Z,-9.55
2022-12-18T06:01:38.051Z,-9.60
2022-12-18T06:04:41.508Z,-9.44
2022-12-18T06:07:43.246Z,-9.34
2022-12-18T06:10:52.222Z,-9.32
2022-12-18T06:13:58.538Z,-9.34
2022-12-18T06:17:01.294Z,-9.29
2022-12-18T06:20:05.598Z,-9.22
2022-12-18T06:23:07.324Z,-9.17
2022-12-18T06:26:10.905Z,-9.19
2022-12-18T06:29:12.551Z,-9.04
2022-12-18T06:32:14.355Z,-9.14
2022-12-18T06:35:17.571Z,-9.30
2022-12-18T06:38:19.685Z,-9.10
2022-12-18T06:41:22.326Z,-9.17
2022-12-18T06:44:24.003Z,-9.35
2022-12-18T06:47:25.811Z,-9.35
2022-12-18T06:50:28.890Z,-9.41
2022-12-18T06:53:30.861Z,-9.69
2022-12-18T06:56:32.656Z,-9.39
2022-12-18T06:59:34.316Z,-9.61
2022-12-18T07:02:36.483Z,-9.44
2022-12-18T07:05:41.961Z,-9.33
2022-12-18T07:08:44.177Z,-9.29
2022-12-18T07:11:45.833Z,-9.21
2022-12-18T07:14:47.806Z,-9.42
2022-12-18T07:17:49.697Z,-9.39
2022-12-18T07:20:52.715Z,-9.35
2022-12-18T07:23:54.848Z,-9.34
2022-12-18T07:26:56.544Z,-9.44
2022-12-18T07:29:58.213Z,-9.51
2022-12-18T07:33:00.000Z,-9.36
2022-12-18T07:36:05.339Z,-9.22
2022-12-18T07:39:07.243Z,-9.13
2022-12-18T07:42:27.609Z,-9.12
2022-12-18T07:45:32.554Z,-9.16
2022-12-18T07:48:34.492Z,-9.34
2022-12-18T07:51:37.503Z,-9.28
2022-12-18T07:54:39.461Z,-9.37
2022-12-18T07:57:50.776Z,-9.27
2022-12-18T08:00:53.887Z,-9.21
2022-12-18T08:03:55.912Z,-9.21
2022-12-18T08:06:58.897Z,-9.34
2022-12-18T08:10:00.535Z,-9.44
2022-12-18T08:13:05.119Z,-9.65
2022-12-18T08:16:08.490Z,-9.77
2022-12-18T08:19:10.285Z,-9.60
2022-12-18T08:22:13.301Z,-9.87
2022-12-18T08:25:15.544Z,-9.70
2022-12-18T08:28:17.639Z,-9.39
2022-12-18T08:31:19.980Z,-9.34
2022-12-18T08:34:22.716Z,-9.17
2022-12-18T08:37:26.151Z,-9.34
2022-12-18T08:40:27.785Z,-9.59
2022-12-18T08:43:48.100Z,-9.63
2022-12-18T08:46:49.781Z,-9.32
2022-12-18T08:49:51.497Z,-9.33
2022-12-18T08:52:54.538Z,-9.26
2022-12-18T08:55:58.176Z,-9.10
2022-12-18T08:59:00.004Z,-9.04
2022-12-18T09:02:02.170Z,-9.06
2022-12-18T09:05:04.871Z,-8.90
2022-12-18T09:08:08.409Z,-8.83
2022-12-18T09:11:15.040Z,-8.75
2022-12-18T09:14:16.746Z,-8.63
2022-12-18T09:17:18.447Z,-8.41
2022-12-18T09:20:21.213Z,-8.37
2022-12-18T09:23:24.291Z,-8.21
2022-12-18T09:26:27.209Z,-8.35
2022-12-18T09:29:29.532Z,-8.22
2022-12-18T09:32:31.245Z,-8.02
2022-12-18T09:35:38.860Z,-8.27
2022-12-18T09:38:42.601Z,-8.09
2022-12-18T09:41:48.177Z,-7.86
2022-12-18T09:44:52.047Z,-7.88
2022-12-18T09:47:56.468Z,-7.98
2022-12-18T09:51:01.883Z,-7.62
2022-12-18T09:54:08.054Z,-7.47
2022-12-18T09:57:15.916Z,-7.51
2022-12-18T10:00:20.722Z,-7.13
2022-12-18T10:03:23.153Z,-7.17
2022-12-18T10:06:29.938Z,-7.24
2022-12-18T10:09:38.236Z,-6.90
2022-12-18T10:12:47.372Z,-6.66
2022-12-18T10:16:00.551Z,-6.69
2022-12-18T10:19:18.971Z,-6.24
2022-12-18T10:22:30.512Z,-6.54
2022-12-18T10:25:38.384Z,-6.29
2022-12-18T10:28:42.733Z,-6.10
2022-12-18T10:31:44.816Z,-6.12
2022-12-18T10:34:47.846Z,-5.65
2022-12-18T10:38:04.682Z,-5.92
2022-12-18T10:41:27.615Z,-6.15
2022-12-18T10:44:29.459Z,-6.17
2022-12-18T10:47:31.249Z,-6.30
2022-12-18T10:51:09.035Z,-6.21
2022-12-18T10:54:00.166Z,-6.21
2022-12-18T10:57:30.807Z,-5.97
2022-12-18T11:00:32.503Z,-6.49
2022-12-18T11:03:39.019Z,-6.36
2022-12-18T11:06:56.535Z,-6.22
2022-12-18T11:10:03.354Z,-5.81
2022-12-18T11:13:19.728Z,-5.77
2022-12-18T11:16:21.716Z,-5.37
2022-12-18T11:19:32.560Z,-5.09
2022-12-18T11:22:37.085Z,-5.43
2022-12-18T11:25:39.295Z,-6.04
2022-12-18T11:28:46.000Z,-5.75
2022-12-18T11:31:47.875Z,-5.58
2022-12-18T11:34:59.171Z,-5.46
2022-12-18T11:38:05.982Z,-5.74
2022-12-18T11:41:17.722Z,-5.45
2022-12-18T11:44:27.880Z,-5.48
2022-12-18T11:47:38.391Z,-5.11
2022-12-18T11:50:47.550Z,-5.06
2022-12-18T11:53:49.308Z,-5.18
2022-12-18T11:56:57.056Z,-5.44
2022-12-18T12:00:05.945Z,-4.69
2022-12-18T12:03:28.595Z,-4.78
2022-12-18T12:06:41.014Z,-5.13
2022-12-18T12:09:53.741Z,-4.66
2022-12-18T12:13:15.495Z,-4.56
2022-12-18T12:16:26.204Z,-5.17
2022-12-18T12:19:39.226Z,-4.94
2022-12-18T12:22:49.286Z,-4.93
2022-12-18T12:26:11.199Z,-4.96
2022-12-18T12:29:28.487Z,-5.19
2022-12-18T12:32:47.949Z,-4.50
2022-12-18T12:35:56.403Z,-4.14
2022-12-18T12:39:02.841Z,-4.47
2022-12-18T12:42:25.495Z,-5.03
2022-12-18T12:45:34.229Z,-4.66
2022-12-18T12:48:44.809Z,-5.02
2022-12-18T12:51:54.250Z,-4.65
2022-12-18T12:54:58.887Z,-4.62
2022-12-18T12:58:09.242Z,-4.78
2022-12-18T13:01:23.847Z,-4.88
2022-12-18T13:04:35.829Z,-5.10
2022-12-18T13:07:42.460Z,-5.15
2022-12-18T13:10:44.553Z,-4.92
2022-12-18T13:13:51.494Z,-4.49
2022-12-18T13:17:31.056Z,-4.69
2022-12-18T13:20:37.319Z,-4.83
2022-12-18T13:23:39.752Z,-4.80
2022-12-18T13:26:42.248Z,-4.76
2022-12-18T13:29:46.657Z,-4.37
2022-12-18T13:32:49.072Z,-4.29
2022-12-18T13:36:03.536Z,-4.62
2022-12-18T13:39:34.811Z,-4.57
2022-12-18T13:42:59.825Z,-4.31
2022-12-18T13:46:02.712Z,-4.45
2022-12-18T13:49:22.569Z,-4.71
2022-12-18T13:52:28.695Z,-4.60
2022-12-18T13:55:30.521Z,-4.73
2022-12-18T13:58:32.537Z,-4.77
2022-12-18T14:01:34.278Z,-4.50
2022-12-18T14:04:36.719Z,-4.68
2022-12-18T14:07:41.852Z,-4.69
2022-12-18T14:10:52.120Z,-4.83
2022-12-18T14:13:54.003Z,-4.65
2022-12-18T14:16:55.828Z,-4.90
2022-12-18T14:19:58.543Z,-4.96
2022-12-18T14:23:02.103Z,-4.91
2022-12-18T14:26:21.642Z,-4.94
2022-12-18T14:29:26.461Z,-4.82
2022-12-18T14:32:28.183Z,-4.92
2022-12-18T14:35:29.912Z,-4.93
2022-12-18T14:38:35.442Z,-5.05
2022-12-18T14:41:39.778Z,-5.14
2022-12-18T14:45:05.225Z,-5.04
2022-12-18T14:48:07.511Z,-5.17
2022-12-18T14:51:20.368Z,-5.26
2022-12-18T14:54:25.120Z,-5.30
2022-12-18T14:57:33.641Z,-5.31
2022-12-18T15:00:42.237Z,-5.27
2022-12-18T15:03:45.035Z,-5.29
2022-12-18T15:06:47.154Z,-5.39
2022-12-18T15:10:11.091Z,-5.49
2022-12-18T15:13:22.808Z,-5.52
2022-12-18T15:16:24.723Z,-5.57
2022-12-18T15:19:36.646Z,-5.58
2022-12-18T15:22:38.205Z,-5.58
2022-12-18T15:25:41.320Z,-5.59
2022-12-18T15:28:46.844Z,-5.63
2022-12-18T15:32:00.443Z,-5.59
2022-12-18T15:35:14.502Z,-5.55
2022-12-18T15:38:16.202Z,-5.53
2022-12-18T15:41:24.481Z,-5.52
2022-12-18T15:44:26.672Z,-5.62
2022-12-18T15:47:29.284Z,-5.69
2022-12-18T15:50:31.169Z,-5.79
2022-12-18T15:53:34.747Z,-5.65
2022-12-18T15:56:56.631Z,-5.67
2022-12-18T15:59:59.385Z,-5.64
2022-12-18T16:03:01.583Z,-5.64
2022-12-18T16:06:04.037Z,-5.66
2022-12-18T16:09:06.229Z,-5.61
2022-12-18T16:12:16.322Z,-5.50
2022-12-18T16:15:24.281Z,-5.43
2022-12-18T16:18:26.761Z,-5.32
2022-12-18T16:21:33.806Z,-5.18
2022-12-18T16:24:37.172Z,-5.24
2022-12-18T16:27:40.177Z,-5.16
2022-12-18T16:30:42.161Z,-5.19
2022-12-18T16:33:44.135Z,-5.15
2022-12-18T16:36:46.215Z,-5.18
2022-12-18T16:39:47.861Z,-5.23
2022-12-18T16:42:50.900Z,-5.16
2022-12-18T16:45:52.871Z,-5.15
2022-12-18T16:48:54.798Z,-5.18
2022-12-18T16:51:56.586Z,-5.16
2022-12-18T16:54:58.250Z,-5.16
2022-12-18T16:58:01.310Z,-5.20
2022-12-18T17:01:08.494Z,-5.23
2022-12-18T17:04:10.385Z,-5.23
2022-12-18T17:07:12.621Z,-5.11
2022-12-18T17:10:14.740Z,-5.11
2022-12-18T17:13:21.450Z,-5.10
2022-12-18T17:16:27.478Z,-5.05
2022-12-18T17:19:29.468Z,-5.06
2022-12-18T17:22:31.132Z,-4.97
2022-12-18T17:25:32.816Z,-4.98
2022-12-18T17:28:37.407Z,-4.92
2022-12-18T17:31:39.082Z,-4.92
2022-12-18T17:34:40.953Z,-4.98
2022-12-18T17:37:42.669Z,-5.11
2022-12-18T17:40:46.459Z,-5.07
2022-12-18T17:43:52.502Z,-5.02
2022-12-18T17:46:54.066Z,-4.94
2022-12-18T17:49:56.156Z,-4.94
2022-12-18T17:52:59.004Z,-4.90
2022-12-18T17:56:01.819Z,-4.92
2022-12-18T17:59:06.812Z,-5.09
2022-12-18T18:02:10.645Z,-5.01
2022-12-18T18:05:14.494Z,-5.03
2022-12-18T18:08:19.571Z,-5.11
2022-12-18T18:11:55.954Z,-5.07
2022-12-18T18:14:59.384Z,-4.87
2022-12-18T18:18:01.923Z,-4.88
2022-12-18T18:21:05.025Z,-4.91
2022-12-18T18:24:08.574Z,-4.87
2022-12-18T18:27:10.300Z,-4.81
2022-12-18T18:30:13.968Z,-4.76
2022-12-18T18:33:15.620Z,-4.75
2022-12-18T18:36:17.945Z,-4.90
2022-12-18T18:39:19.971Z,-4.76
2022-12-18T18:42:21.631Z,-4.78
2022-12-18T18:45:24.744Z,-4.87
2022-12-18T18:48:26.710Z,-5.00
2022-12-18T18:51:35.008Z,-5.06
2022-12-18T18:54:37.172Z,-5.05
2022-12-18T18:57:38.869Z,-5.07
2022-12-18T19:00:41.972Z,-5.02
2022-12-18T19:03:44.934Z,-5.00
2022-12-18T19:06:47.711Z,-4.82
2022-12-18T19:09:52.128Z,-4.80
2022-12-18T19:13:32.412Z,-4.76
2022-12-18T19:16:36.209Z,-4.73
2022-12-18T19:19:38.194Z,-4.66
2022-12-18T19:22:40.070Z,-4.58
2022-12-18T19:25:42.227Z,-4.56
2022-12-18T19:28:45.096Z,-4.60
2022-12-18T19:31:48.259Z,-4.54
2022-12-18T19:34:49.980Z,-4.51
2022-12-18T19:37:51.862Z,-4.56
2022-12-18T19:40:53.611Z,-4.51
2022-12-18T19:43:55.404Z,-4.53
2022-12-18T19:46:59.557Z,-4.50
2022-12-18T19:50:01.374Z,-4.47
2022-12-18T19:53:03.273Z,-4.63
2022-12-18T19:56:09.920Z,-4.59
2022-12-18T19:59:11.984Z,-4.45
2022-12-18T20:02:15.363Z,-4.54
2022-12-18T20:05:17.164Z,-4.51
2022-12-18T20:08:18.833Z,-4.50
2022-12-18T20:11:20.775Z,-4.41
2022-12-18T20:14:23.661Z,-4.45
2022-12-18T20:17:26.913Z,-4.39
2022-12-18T20:20:28.617Z,-4.34
2022-12-18T20:23:30.585Z,-4.34
2022-12-18T20:26:34.418Z,-4.33
2022-12-18T20:29:36.125Z,-4.41
2022-12-18T20:32:39.086Z,-4.36
2022-12-18T20:35:40.912Z,-4.43
2022-12-18T20:38:43.488Z,-4.51
2022-12-18T20:41:46.298Z,-4.47
2022-12-18T20:44:48.047Z,-4.48
2022-12-18T20:47:57.155Z,-4.55
2022-12-18T20:50:59.471Z,-4.44
2022-12-18T20:54:07.959Z,-4.31
2022-12-18T20:57:11.973Z,-4.24
2022-12-18T21:00:14.901Z,-4.16
2022-12-18T21:03:21.981Z,-4.10
2022-12-18T21:06:24.915Z,-4.16
2022-12-18T21:09:26.619Z,-4.22
2022-12-18T21:12:35.118Z,-4.11
2022-12-18T21:15:45.823Z,-4.00
2022-12-18T21:18:48.861Z,-3.99
2022-12-18T21:21:51.580Z,-3.96
2022-12-18T21:24:53.197Z,-3.95
2022-12-18T21:27:55.871Z,-4.03
2022-12-18T21:30:57.940Z,-3.93
2022-12-18T21:34:02.065Z,-3.86
2022-12-18T21:37:04.546Z,-3.78
2022-12-18T21:40:08.460Z,-3.75
2022-12-18T21:43:36.504Z,-3.74
2022-12-18T21:46:40.755Z,-3.69
2022-12-18T21:49:43.844Z,-3.77
2022-12-18T21:52:46.234Z,-3.70
2022-12-18T21:55:56.697Z,-3.75
2022-12-18T21:58:58.394Z,-3.69
2022-12-18T22:02:03.211Z,-3.69
2022-12-18T22:05:07.055Z,-3.66
2022-12-18T22:08:08.864Z,-3.62
2022-12-18T22:11:12.567Z,-3.56
2022-12-18T22:14:15.256Z,-3.63
2022-12-18T22:17:19.575Z,-3.74
2022-12-18T22:20:23.065Z,-3.77
2022-12-18T22:23:24.677Z,-3.75
2022-12-18T22:26:28.517Z,-3.71
2022-12-18T22:29:48.893Z,-3.62
2022-12-18T22:32:50.613Z,-3.52
2022-12-18T22:35:53.577Z,-3.50
2022-12-18T22:38:55.299Z,-3.47
2022-12-18T22:41:57.141Z,-3.50
2022-12-18T22:45:00.276Z,-3.48
2022-12-18T22:48:02.053Z,-3.45
2022-12-18T22:51:05.264Z,-3.37
2022-12-18T22:54:07.066Z,-3.34
2022-12-18T22:57:09.424Z,-3.31
2022-12-18T23:00:11.925Z,-3.33
2022-12-18T23:03:13.738Z,-3.26
2022-12-18T23:06:17.562Z,-3.22
2022-12-18T23:09:20.339Z,-3.23
2022-12-18T23:12:22.014Z,-3.29
2022-12-18T23:15:28.170Z,-3.26
2022-12-18T23:18:30.335Z,-3.35
2022-12-18T23:21:33.364Z,-3.31
2022-12-18T23:24:35.739Z,-3.28
2022-12-18T23:27:37.423Z,-3.23
2022-12-18T23:30:39.067Z,-3.18
2022-12-18T23:33:41.014Z,-3.12
2022-12-18T23:36:46.291Z,-3.08
2022-12-18T23:39:48.435Z,-3.07
2022-12-18T23:42:50.057Z,-3.06
2022-12-18T23:45:55.651Z,-3.09
2022-12-18T23:48:58.467Z,-3.03
2022-12-18T23:52:01.544Z,-2.96
2022-12-18T23:55:03.829Z,-2.98
2022-12-18T23:58:05.525Z,-2.87
